Time;durP1;ratioP1;P1;durP2;ratioP2;P2;SDS_P1;SDS_P2;PMS_P1;PMS_P2;Temp;Humidity;BMP_temperature;BMP_pressure;BME280_temperature;BME280_humidity;BME280_pressure;Samples;Min_cycle;Max_cycle;Signal;HPM_P1;HPM_P2
2023/10/03 00:00:27;;;;;;;14.00;6.55;;;;;;;;;;4947113;28;20035;-68
2023/10/03 00:02:55;;;;;;;14.07;7.10;;;;;;;;;;4948595;28;20046;-69
2023/10/03 00:05:22;;;;;;;15.85;6.88;;;;;;;;;;4945956;28;20149;-68
2023/10/03 00:07:48;;;;;;;17.08;7.38;;;;;;;;;;4947304;28;20478;-68
2023/10/03 00:10:13;;;;;;;15.00;7.38;;;;;;;;;;4950115;28;20033;-68
2023/10/03 00:12:39;;;;;;;18.48;7.60;;;;;;;;;;4949114;28;20110;-67
2023/10/03 00:15:08;;;;;;;19.58;7.90;;;;;;;;;;4952094;28;20517;-68
2023/10/03 00:17:34;;;;;;;18.33;7.07;;;;;;;;;;4962306;28;20026;-67
2023/10/03 00:20:00;;;;;;;19.95;7.32;;;;;;;;;;4959783;28;20034;-67
2023/10/03 00:22:25;;;;;;;18.23;7.53;;;;;;;;;;4962486;28;20027;-69
2023/10/03 00:24:51;;;;;;;16.93;7.17;;;;;;;;;;4956866;28;20034;-68
2023/10/03 00:27:16;;;;;;;15.73;7.25;;;;;;;;;;4961142;28;20273;-69
2023/10/03 00:29:42;;;;;;;15.98;7.25;;;;;;;;;;4951066;28;20551;-68
2023/10/03 00:32:07;;;;;;;17.88;7.20;;;;;;;;;;4949270;28;20074;-68
2023/10/03 00:34:36;;;;;;;19.98;7.40;;;;;;;;;;4952764;28;20089;-68
2023/10/03 00:37:01;;;;;;;17.90;7.07;;;;;;;;;;4952844;28;20034;-67
2023/10/03 00:39:27;;;;;;;16.80;7.00;;;;;;;;;;4950720;28;20489;-68
2023/10/03 00:41:53;;;;;;;13.77;6.32;;;;;;;;;;4952774;28;20060;-68
2023/10/03 00:44:19;;;;;;;19.17;7.35;;;;;;;;;;4951536;28;20454;-68
2023/10/03 00:46:45;;;;;;;19.25;7.28;;;;;;;;;;4951461;28;20027;-68
2023/10/03 00:49:14;;;;;;;17.35;7.50;;;;;;;;;;4966207;28;20035;-68
2023/10/03 00:51:40;;;;;;;16.85;7.38;;;;;;;;;;4950799;28;20062;-68
2023/10/03 00:54:06;;;;;;;14.88;6.72;;;;;;;;;;4950889;28;20050;-68
2023/10/03 00:56:31;;;;;;;17.33;6.90;;;;;;;;;;4948443;28;20035;-69
2023/10/03 00:58:57;;;;;;;17.17;7.33;;;;;;;;;;4964670;28;20118;-69
2023/10/03 01:01:22;;;;;;;17.88;6.75;;;;;;;;;;4952586;28;20023;-69
2023/10/03 01:03:48;;;;;;;16.95;7.28;;;;;;;;;;4949814;28;20023;-68
2023/10/03 01:06:13;;;;;;;19.45;7.28;;;;;;;;;;4951928;28;20035;-68
2023/10/03 01:08:46;;;;;;;16.15;7.22;;;;;;;;;;4963581;28;20397;-69
2023/10/03 01:11:15;;;;;;;16.58;7.53;;;;;;;;;;4950463;28;20042;-69
2023/10/03 01:13:49;;;;;;;21.35;7.10;;;;;;;;;;4951878;28;20070;-69
2023/10/03 01:16:29;;;;;;;16.73;7.20;;;;;;;;;;4950861;28;20094;-69
2023/10/03 01:18:58;;;;;;;25.17;7.43;;;;;;;;;;4950765;28;20093;-69
2023/10/03 01:21:25;;;;;;;13.88;6.05;;;;;;;;;;4947568;28;20067;-69
2023/10/03 01:23:50;;;;;;;17.65;7.05;;;;;;;;;;4947298;28;20047;-68
2023/10/03 01:26:15;;;;;;;19.88;7.50;;;;;;;;;;4949412;28;20067;-68
2023/10/03 01:28:41;;;;;;;12.17;6.43;;;;;;;;;;4950313;28;20039;-68
2023/10/03 01:31:06;;;;;;;14.70;6.47;;;;;;;;;;4947923;28;21471;-69
2023/10/03 01:33:32;;;;;;;16.30;7.03;;;;;;;;;;4950817;28;20316;-69
2023/10/03 01:35:58;;;;;;;17.85;7.10;;;;;;;;;;4950610;28;20110;-69
2023/10/03 01:38:24;;;;;;;15.13;6.53;;;;;;;;;;4949820;28;20126;-69
2023/10/03 01:40:51;;;;;;;16.75;6.78;;;;;;;;;;4950803;28;20092;-69
2023/10/03 01:43:16;;;;;;;16.58;6.75;;;;;;;;;;4948684;28;20385;-67
2023/10/03 01:45:42;;;;;;;15.13;6.70;;;;;;;;;;4948870;28;20049;-69
2023/10/03 01:48:07;;;;;;;13.37;6.37;;;;;;;;;;4950146;28;20070;-68
2023/10/03 01:50:34;;;;;;;19.90;6.40;;;;;;;;;;4947338;29;20050;-69
2023/10/03 01:52:59;;;;;;;13.93;6.50;;;;;;;;;;4948657;28;20074;-68
2023/10/03 01:55:24;;;;;;;13.10;6.28;;;;;;;;;;4949420;28;20485;-68
2023/10/03 01:57:50;;;;;;;15.27;7.00;;;;;;;;;;4949188;28;20031;-68
2023/10/03 02:02:43;;;;;;;18.45;6.80;;;;;;;;;;4948484;28;20078;-69
2023/10/03 02:05:09;;;;;;;16.40;6.80;;;;;;;;;;4948425;28;20035;-70
2023/10/03 02:07:34;;;;;;;16.98;6.75;;;;;;;;;;4949254;28;20035;-69
2023/10/03 02:10:01;;;;;;;13.90;6.53;;;;;;;;;;4947189;28;20118;-69
2023/10/03 02:12:27;;;;;;;14.48;6.57;;;;;;;;;;4951001;28;20034;-69
2023/10/03 02:14:54;;;;;;;18.63;7.00;;;;;;;;;;4951281;28;20042;-69
2023/10/03 02:17:19;;;;;;;14.05;6.72;;;;;;;;;;4949458;29;20113;-69
2023/10/03 02:19:45;;;;;;;18.00;7.10;;;;;;;;;;4948010;28;20489;-69
2023/10/03 02:22:12;;;;;;;16.77;6.90;;;;;;;;;;4949513;28;20305;-69
2023/10/03 02:24:38;;;;;;;14.68;7.05;;;;;;;;;;4949425;28;20031;-70
2023/10/03 02:27:07;;;;;;;15.20;7.15;;;;;;;;;;4947200;28;20031;-69
2023/10/03 02:29:33;;;;;;;;;;;;;;;;;;4950283;28;20034;-69
2023/10/03 02:31:58;;;;;;;14.35;6.55;;;;;;;;;;4965890;28;19993;-70
2023/10/03 02:34:23;;;;;;;20.33;7.10;;;;;;;;;;4951465;28;20466;-70
2023/10/03 02:36:49;;;;;;;17.85;6.95;;;;;;;;;;4949487;28;20034;-69
2023/10/03 02:39:14;;;;;;;16.65;7.00;;;;;;;;;;4950925;28;20030;-69
2023/10/03 02:41:40;;;;;;;16.35;6.60;;;;;;;;;;4949637;28;20031;-70
2023/10/03 02:44:07;;;;;;;14.30;7.03;;;;;;;;;;4948479;28;20031;-69
2023/10/03 02:46:33;;;;;;;15.13;6.72;;;;;;;;;;4949996;28;20023;-69
2023/10/03 02:48:59;;;;;;;15.80;6.97;;;;;;;;;;4952040;28;20023;-73
2023/10/03 02:51:24;;;;;;;16.13;6.30;;;;;;;;;;4954029;28;20481;-73
2023/10/03 02:53:51;;;;;;;14.93;6.78;;;;;;;;;;4954729;28;20051;-72
2023/10/03 02:56:16;;;;;;;15.85;7.75;;;;;;;;;;4950987;28;20424;-71
2023/10/03 02:58:41;;;;;;;14.60;6.87;;;;;;;;;;4949096;28;20053;-68
2023/10/03 03:01:06;;;;;;;15.88;6.85;;;;;;;;;;4948375;28;20292;-66
2023/10/03 03:03:32;;;;;;;12.15;6.50;;;;;;;;;;4950551;28;20405;-68
2023/10/03 03:06:03;;;;;;;12.48;6.40;;;;;;;;;;4948412;28;20091;-67
2023/10/03 03:08:28;;;;;;;14.10;6.18;;;;;;;;;;4947882;28;20027;-68
2023/10/03 03:10:57;;;;;;;16.80;6.65;;;;;;;;;;4949307;28;20030;-68
2023/10/03 03:13:23;;;;;;;14.30;6.45;;;;;;;;;;4966712;28;20038;-68
2023/10/03 03:15:56;;;;;;;15.45;6.47;;;;;;;;;;4953639;28;20023;-68
2023/10/03 03:18:23;;;;;;;16.88;6.57;;;;;;;;;;4950145;28;20031;-67
2023/10/03 03:20:58;;;;;;;15.07;6.50;;;;;;;;;;4950574;28;20549;-67
2023/10/03 03:23:36;;;;;;;14.00;6.35;;;;;;;;;;4948803;28;20031;-69
2023/10/03 03:26:21;;;;;;;16.02;7.00;;;;;;;;;;4948365;28;20091;-68
2023/10/03 03:28:49;;;;;;;14.52;6.43;;;;;;;;;;4949349;28;20031;-69
2023/10/03 03:31:22;;;;;;;13.18;6.60;;;;;;;;;;4950053;28;20035;-69
2023/10/03 03:33:51;;;;;;;16.55;6.68;;;;;;;;;;4944703;28;20098;-69
2023/10/03 03:36:17;;;;;;;;;;;;;;;;;;4945764;28;20035;-68
2023/10/03 03:38:43;;;;;;;14.98;6.07;;;;;;;;;;4949351;28;19929;-68
2023/10/03 03:41:08;;;;;;;14.60;6.15;;;;;;;;;;4950658;28;20477;-69
2023/10/03 03:43:34;;;;;;;14.47;6.63;;;;;;;;;;4950592;28;20042;-67
2023/10/03 03:45:59;;;;;;;14.35;6.28;;;;;;;;;;4951634;28;20035;-68
2023/10/03 03:48:25;;;;;;;17.27;7.17;;;;;;;;;;4952871;28;20110;-68
2023/10/03 03:50:50;;;;;;;15.63;6.50;;;;;;;;;;4955702;28;20283;-68
2023/10/03 03:53:16;;;;;;;17.58;6.75;;;;;;;;;;4956222;28;20047;-68
2023/10/03 03:55:42;;;;;;;17.75;6.50;;;;;;;;;;4954924;28;20038;-69
2023/10/03 03:58:14;;;;;;;15.93;6.30;;;;;;;;;;4951973;28;20381;-67
2023/10/03 04:00:42;;;;;;;16.63;6.57;;;;;;;;;;4953260;28;20086;-69
2023/10/03 04:03:11;;;;;;;15.98;6.53;;;;;;;;;;4950358;28;20166;-67
2023/10/03 04:05:37;;;;;;;17.40;6.40;;;;;;;;;;4953137;28;20019;-68
2023/10/03 04:08:04;;;;;;;20.20;6.90;;;;;;;;;;4951337;28;20041;-67
2023/10/03 04:10:30;;;;;;;14.88;6.10;;;;;;;;;;4953598;28;20119;-68
2023/10/03 04:12:55;;;;;;;23.25;6.30;;;;;;;;;;4951100;28;20131;-66
2023/10/03 04:15:21;;;;;;;18.52;6.00;;;;;;;;;;4954757;28;20381;-66
2023/10/03 04:17:48;;;;;;;16.48;6.07;;;;;;;;;;4952492;28;20087;-68
2023/10/03 04:20:25;;;;;;;17.27;6.80;;;;;;;;;;4950873;28;20449;-67
2023/10/03 04:22:53;;;;;;;16.15;6.53;;;;;;;;;;4950939;28;20042;-68
2023/10/03 04:25:20;;;;;;;15.30;6.10;;;;;;;;;;4950536;28;20054;-66
2023/10/03 04:27:49;;;;;;;11.23;5.80;;;;;;;;;;4948965;28;20039;-67
2023/10/03 04:30:14;;;;;;;10.93;5.53;;;;;;;;;;4951998;28;20027;-68
2023/10/03 04:32:41;;;;;;;22.48;6.70;;;;;;;;;;4951213;28;20038;-68
2023/10/03 04:35:06;;;;;;;23.50;6.50;;;;;;;;;;4948989;28;20062;-67
2023/10/03 04:37:32;;;;;;;12.95;5.50;;;;;;;;;;4950032;28;20085;-68
2023/10/03 04:39:57;;;;;;;15.47;6.13;;;;;;;;;;4963981;28;20031;-68
2023/10/03 04:42:22;;;;;;;15.65;5.88;;;;;;;;;;4957162;28;20360;-69
2023/10/03 04:44:48;;;;;;;13.77;5.90;;;;;;;;;;4951289;28;20560;-68
2023/10/03 04:47:13;;;;;;;19.77;5.78;;;;;;;;;;4952238;28;20277;-70
2023/10/03 04:49:38;;;;;;;20.23;6.37;;;;;;;;;;4950195;28;20031;-67
2023/10/03 04:52:07;;;;;;;16.17;6.10;;;;;;;;;;4951359;28;20031;-72
2023/10/03 04:54:33;;;;;;;14.13;6.00;;;;;;;;;;4952171;28;20786;-72
2023/10/03 04:56:58;;;;;;;12.75;5.80;;;;;;;;;;4952462;28;20027;-73
2023/10/03 04:59:25;;;;;;;14.07;6.13;;;;;;;;;;4948522;28;20039;-71
2023/10/03 05:01:50;;;;;;;21.55;7.03;;;;;;;;;;4967354;28;20647;-69
2023/10/03 05:04:15;;;;;;;20.40;6.57;;;;;;;;;;4948292;28;20038;-70
2023/10/03 05:06:42;;;;;;;21.75;6.50;;;;;;;;;;4952973;28;20364;-69
2023/10/03 05:09:08;;;;;;;18.88;5.88;;;;;;;;;;4954205;28;20495;-68
2023/10/03 05:11:37;;;;;;;14.15;5.97;;;;;;;;;;4948130;28;20039;-69
2023/10/03 05:14:04;;;;;;;18.10;6.97;;;;;;;;;;4941939;28;20038;-69
2023/10/03 05:16:29;;;;;;;16.33;6.93;;;;;;;;;;4944364;28;20054;-68
2023/10/03 05:18:55;;;;;;;14.70;6.20;;;;;;;;;;4968045;28;20381;-72
2023/10/03 05:21:21;;;;;;;14.93;6.28;;;;;;;;;;4953974;28;20087;-76
2023/10/03 05:23:46;;;;;;;17.80;6.30;;;;;;;;;;4978033;28;20050;-76
2023/10/03 05:26:18;;;;;;;16.52;6.10;;;;;;;;;;4958252;28;20043;-78
2023/10/03 05:28:44;;;;;;;16.48;7.00;;;;;;;;;;4944589;28;20066;-68
2023/10/03 05:31:13;;;;;;;12.80;5.80;;;;;;;8.59;nan;101429.13;4947343;28;20043;-70
2023/10/03 05:33:38;;;;;;;19.40;6.18;;;;;;;;;;4948554;28;20409;-70
2023/10/03 05:36:04;;;;;;;15.85;6.07;;;;;;;;;;4946140;28;20095;-71
2023/10/03 05:38:29;;;;;;;17.90;7.05;;;;;;;;;;4945208;28;20524;-76
2023/10/03 05:40:55;;;;;;;23.63;6.73;;;;;;;;;;4945296;28;20114;-71
2023/10/03 05:43:20;;;;;;;13.57;6.20;;;;;;;;;;4942370;28;20852;-71
2023/10/03 05:45:49;;;;;;;18.27;6.60;;;;;;;;;;4955188;28;20035;-74
2023/10/03 05:48:15;;;;;;;22.55;7.28;;;;;;;;;;4953828;28;20777;-74
2023/10/03 05:50:41;;;;;;;14.95;5.85;;;;;;;;;;4945428;28;20042;-74
2023/10/03 05:53:06;;;;;;;17.92;6.10;;;;;;;;;;4947309;28;20229;-74
2023/10/03 05:55:32;;;;;;;17.10;6.47;;;;;;;;;;4959762;28;20164;-73
2023/10/03 05:57:57;;;;;;;16.67;6.63;;;;;;;;;;4947159;28;20031;-70
2023/10/03 06:00:22;;;;;;;10.67;5.67;;;;;;;;;;4946390;28;20339;-70
2023/10/03 06:02:48;;;;;;;14.40;6.13;;;;;;;;;;4947762;28;20034;-71
2023/10/03 06:05:16;;;;;;;15.13;6.15;;;;;;;;;;4947892;28;20035;-70
2023/10/03 06:07:42;;;;;;;13.60;6.05;;;;;;;;;;4948247;28;20047;-69
2023/10/03 06:10:10;;;;;;;13.73;5.88;;;;;;;;;;4946217;28;20109;-70
2023/10/03 06:12:36;;;;;;;22.60;6.90;;;;;;;;;;4943890;28;20066;-70
2023/10/03 06:15:01;;;;;;;20.88;7.75;;;;;;;9.90;nan;101440.06;4955458;28;20027;-69
2023/10/03 06:17:27;;;;;;;25.50;10.02;;;;;;;;;;4963031;28;20027;-69
2023/10/03 06:19:52;;;;;;;30.13;9.93;;;;;;;;;;4962614;28;20031;-69
2023/10/03 06:22:17;;;;;;;16.95;7.57;;;;;;;;;;4961819;28;20086;-69
2023/10/03 06:24:42;;;;;;;17.03;7.13;;;;;;;;;;4975239;28;20042;-69
2023/10/03 06:27:10;;;;;;;17.63;6.22;;;;;;;;;;4958770;28;20281;-73
2023/10/03 06:29:35;;;;;;;15.88;6.13;;;;;;;;;;4949519;28;20143;-69
2023/10/03 06:32:01;;;;;;;17.45;6.28;;;;;;;;;;4944529;28;20054;-69
2023/10/03 06:34:26;;;;;;;12.40;6.10;;;;;;;;;;4948871;28;20106;-68
2023/10/03 06:36:52;;;;;;;11.40;5.88;;;;;;;;;;4946427;28;20050;-69
2023/10/03 06:39:17;;;;;;;16.83;6.60;;;;;;;;;;4946333;28;20031;-71
2023/10/03 06:41:43;;;;;;;12.63;6.55;;;;;;;;;;4963362;28;20390;-72
2023/10/03 06:44:08;;;;;;;16.98;6.30;;;;;;;10.96;nan;101392.16;4949405;28;20078;-73
2023/10/03 06:46:34;;;;;;;13.95;6.10;;;;;;;;;;4950287;28;20037;-68
2023/10/03 06:49:00;;;;;;;14.73;6.28;;;;;;;;;;4948154;28;20729;-70
2023/10/03 06:51:25;;;;;;;16.08;6.40;;;;;;;;;;4948989;28;20031;-70
2023/10/03 06:53:52;;;;;;;13.63;5.35;;;;;;;;;;4948309;28;20059;-70
2023/10/03 06:56:19;;;;;;;14.13;5.47;;;;;;;;;;4949423;28;20027;-68
2023/10/03 06:58:46;;;;;;;20.10;6.30;;;;;;;;;;4949005;28;20035;-70
2023/10/03 07:01:11;;;;;;;20.85;5.70;;;;;;;;;;4949570;28;20057;-71
2023/10/03 07:03:37;;;;;;;13.85;5.38;;;;;;;;;;4948701;28;20061;-71
2023/10/03 07:06:03;;;;;;;14.75;5.43;;;;;;;;;;4951413;28;20123;-71
2023/10/03 07:08:28;;;;;;;12.13;5.13;;;;;;;;;;4952536;28;20071;-71
2023/10/03 07:10:55;;;;;;;14.93;5.63;;;;;;;;;;4950543;28;20038;-72
2023/10/03 07:13:20;;;;;;;19.48;6.05;;;;;;;;;;4951450;28;20042;-73
2023/10/03 07:15:45;;;;;;;22.00;6.10;;;;;;;;;;4949733;28;20023;-70
2023/10/03 07:18:11;;;;;;;25.37;7.83;;;;;;;;;;4948203;28;20752;-71
2023/10/03 07:20:36;;;;;;;11.95;5.38;;;;;;;;;;4946872;28;20277;-71
2023/10/03 07:23:03;;;;;;;17.42;5.53;;;;;;;;;;4949091;28;20497;-71
2023/10/03 07:25:31;;;;;;;15.80;6.35;;;;;;;;;;4951459;28;20030;-70
2023/10/03 07:27:56;;;;;;;18.77;6.57;;;;;;;;;;4966016;28;20081;-71
2023/10/03 07:30:21;;;;;;;19.88;6.32;;;;;;;;;;4951724;28;20035;-67
2023/10/03 07:32:47;;;;;;;10.63;5.00;;;;;;;;;;4952538;28;20046;-69
2023/10/03 07:35:16;;;;;;;20.25;5.82;;;;;;;;;;4954375;28;21011;-70
2023/10/03 07:37:42;;;;;;;;;;;;;;;;;;4953786;28;20114;-71
2023/10/03 07:40:07;;;;;;;14.20;4.80;;;;;;;;;;4952461;28;20033;-71
2023/10/03 07:42:33;;;;;;;19.90;4.85;;;;;;;;;;4951387;28;20752;-70
2023/10/03 07:44:58;;;;;;;18.77;5.18;;;;;;;;;;4952920;28;20078;-70
2023/10/03 07:47:23;;;;;;;16.02;5.63;;;;;;;;;;4952150;28;20034;-70
2023/10/03 07:49:49;;;;;;;11.88;4.75;;;;;;;;;;4949701;28;20039;-70
2023/10/03 07:52:18;;;;;;;12.00;4.68;;;;;;;;;;4950484;28;20556;-71
2023/10/03 07:54:54;;;;;;;10.07;4.55;;;;;;;;;;4951553;28;20039;-70
2023/10/03 07:57:23;;;;;;;14.07;4.88;;;;;;;14.52;nan;101432.44;4947285;28;20054;-71
2023/10/03 07:59:50;;;;;;;8.30;4.10;;;;;;;;;;4949080;28;20039;-70
2023/10/03 08:02:16;;;;;;;11.45;3.75;;;;;;;;;;4953212;28;20050;-70
2023/10/03 08:04:42;;;;;;;11.05;4.60;;;;;;;;;;4951420;28;20095;-71
2023/10/03 08:07:08;;;;;;;13.40;4.72;;;;;;;;;;4952707;28;20429;-71
2023/10/03 08:09:33;;;;;;;11.35;4.47;;;;;;;;;;4951708;28;20023;-71
2023/10/03 08:11:59;;;;;;;14.10;4.38;;;;;;;;;;4952097;28;20038;-71
2023/10/03 08:14:25;;;;;;;11.68;3.92;;;;;;;;;;4951732;28;20023;-70
2023/10/03 08:16:56;;;;;;;10.65;4.13;;;;;;;;;;4952206;28;20039;-74
2023/10/03 08:19:21;;;;;;;12.43;4.20;;;;;;;;;;4951945;28;20743;-70
2023/10/03 08:21:48;;;;;;;15.23;3.77;;;;;;;;;;4952154;28;20044;-71
2023/10/03 08:24:14;;;;;;;9.55;4.15;;;;;;;;;;4952637;28;20277;-71
2023/10/03 08:26:46;;;;;;;13.00;4.00;;;;;;;;;;4951896;28;20035;-70
2023/10/03 08:29:21;;;;;;;14.00;4.07;;;;;;;;;;4953082;28;20031;-71
2023/10/03 08:31:46;;;;;;;17.67;4.75;;;;;;;;;;4951876;28;20465;-70
2023/10/03 08:34:12;;;;;;;14.65;4.38;;;;;;;16.54;nan;101416.13;4950647;28;20062;-70
2023/10/03 08:36:37;;;;;;;11.93;3.80;;;;;;;16.67;nan;101445.09;4950183;28;20058;-70
2023/10/03 08:39:12;;;;;;;22.80;4.68;;;;;;;;;;4950699;28;20549;-71
2023/10/03 08:41:48;;;;;;;14.32;4.30;;;;;;;;;;4949573;28;20026;-70
2023/10/03 08:44:13;;;;;;;12.25;3.88;;;;;;;;;;4951867;28;20067;-72
2023/10/03 08:46:44;;;;;;;14.93;4.22;;;;;;;;;;4958223;28;20030;-73
2023/10/03 08:49:11;;;;;;;11.80;3.88;;;;;;;;;;4956982;28;20390;-73
2023/10/03 08:51:36;;;;;;;11.55;4.07;;;;;;;;;;4958655;28;20104;-73
2023/10/03 08:54:09;;;;;;;10.98;3.90;;;;;;;;;;4950873;28;20060;-75
2023/10/03 08:56:35;;;;;;;13.43;4.03;;;;;;;;;;4951570;28;20097;-72
2023/10/03 08:59:01;;;;;;;16.10;4.70;;;;;;;;;;4952325;28;20084;-71
2023/10/03 09:01:26;;;;;;;17.23;4.10;;;;;;;;;;4951945;28;20043;-73
2023/10/03 09:03:58;;;;;;;10.05;3.85;;;;;;;;;;4957340;28;20027;-72
2023/10/03 09:06:26;;;;;;;9.20;3.55;;;;;;;;;;4950663;28;20035;-73
2023/10/03 09:09:08;;;;;;;6.15;3.53;;;;;;;;;;4950736;28;20039;-71
2023/10/03 09:11:37;;;;;;;9.30;3.60;;;;;;;18.32;nan;101403.69;4949315;28;20039;-72
2023/10/03 09:14:06;;;;;;;9.48;3.75;;;;;;;;;;4950432;28;20039;-71
2023/10/03 09:16:38;;;;;;;13.73;4.47;;;;;;;;;;4950301;28;20449;-73
2023/10/03 09:19:04;;;;;;;9.60;3.88;;;;;;;;;;4952427;28;20093;-67
2023/10/03 09:21:29;;;;;;;10.35;3.88;;;;;;;;;;4967023;28;20027;-69
2023/10/03 09:24:14;;;;;;;11.93;4.18;;;;;;;18.89;nan;101387.13;4952712;28;20034;-67
2023/10/03 09:26:51;;;;;;;11.88;4.45;;;;;;;19.04;nan;101326.91;4950847;28;20034;-72
2023/10/03 09:29:29;;;;;;;9.43;4.13;;;;;;;;;;4952060;28;20019;-68
2023/10/03 09:31:57;;;;;;;11.00;3.83;;;;;;;;;;4949191;28;20417;-66
2023/10/03 09:34:32;;;;;;;14.40;3.92;;;;;;;19.39;nan;101341.47;4961139;28;20035;-69
2023/10/03 09:37:02;;;;;;;10.30;3.90;;;;;;;19.53;nan;101348.72;4965595;28;20030;-68
2023/10/03 09:39:29;;;;;;;8.07;3.63;;;;;;;19.57;nan;101282.25;4970956;28;20029;-69
2023/10/03 09:41:56;;;;;;;8.85;3.50;;;;;;;19.69;nan;101317.56;4973116;28;20023;-68
2023/10/03 09:44:29;;;;;;;9.70;3.88;;;;;;;;;;4971133;28;20019;-70
2023/10/03 09:47:06;;;;;;;19.33;3.80;;;;;;;19.96;nan;101320.03;4974418;28;20023;-71
2023/10/03 09:49:36;;;;;;;15.52;4.10;;;;;;;;;;4965592;28;20663;-69
2023/10/03 09:52:27;;;;;;;11.00;4.28;;;;;;;20.14;nan;101336.63;4952340;28;20039;-69
2023/10/03 09:54:54;;;;;;;11.48;3.63;;;;;;;20.22;nan;101320.06;4948890;28;20039;-69
2023/10/03 09:57:29;;;;;;;9.32;3.45;;;;;;;20.31;nan;101320.34;4965162;28;20027;-69
2023/10/03 09:59:56;;;;;;;9.65;3.97;;;;;;;20.36;nan;101318.44;4955531;28;20082;-68
2023/10/03 10:02:30;;;;;;;11.27;3.90;;;;;;;20.35;nan;101300.81;4952029;28;20019;-69
2023/10/03 10:05:02;;;;;;;11.30;4.25;;;;;;;20.51;nan;101312.28;4950480;28;20791;-69
2023/10/03 10:07:33;;;;;;;14.77;3.65;;;;;;;20.58;nan;101317.41;4950780;28;20031;-69
2023/10/03 10:10:07;;;;;;;9.32;3.55;;;;;;;20.65;nan;101299.19;4950463;28;20062;-68
2023/10/03 10:12:37;;;;;;;8.32;3.47;;;;;;;20.74;nan;101294.91;4948502;28;20110;-68
2023/10/03 10:17:54;;;;;;;9.23;3.75;;;;;;;20.89;nan;101307.44;4950492;28;20117;-67
2023/10/03 10:20:38;;;;;;;10.80;3.75;;;;;;;20.98;nan;101297.78;4951188;28;20043;-69
2023/10/03 10:25:42;;;;;;;8.68;3.95;;;;;;;21.14;nan;101268.25;4950241;28;20039;-71
2023/10/03 10:28:10;;;;;;;10.57;4.32;;;;;;;21.21;nan;101269.59;4950316;28;20114;-68
2023/10/03 10:30:38;;;;;;;10.98;3.60;;;;;;;21.31;nan;101268.72;4949561;28;20033;-69
2023/10/03 10:33:20;;;;;;;9.88;3.40;;;;;;;21.43;nan;101289.88;4951397;28;20102;-69
2023/10/03 10:35:56;;;;;;;11.65;4.15;;;;;;;21.45;nan;101301.09;4949593;28;20061;-68
2023/10/03 10:38:31;;;;;;;12.45;3.90;;;;;;;21.57;nan;101277.47;4949476;28;20027;-69
2023/10/03 10:41:12;;;;;;;8.32;3.65;;;;;;;21.68;nan;101283.56;4950066;28;20031;-69
2023/10/03 10:44:16;;;;;;;8.90;3.70;;;;;;;21.78;nan;101280.78;4949626;28;20051;-70
2023/10/03 10:46:47;;;;;;;7.70;3.53;;;;;;;21.88;nan;101251.25;4948663;28;20023;-70
2023/10/03 10:49:41;;;;;;;13.00;4.10;;;;;;;22.01;nan;101254.38;4950339;28;20038;-71
2023/10/03 10:52:09;;;;;;;12.02;4.45;;;;;;;22.08;nan;101260.22;4922286;28;20565;-69
2023/10/03 10:54:38;;;;;;;9.48;3.40;;;;;;;22.17;nan;101252.34;4947860;28;20035;-67
2023/10/03 10:57:06;;;;;;;13.10;3.75;;;;;;;22.24;nan;101247.47;4943478;28;20057;-69
2023/10/03 10:59:35;;;;;;;12.68;4.05;;;;;;;22.31;nan;101264.03;4948983;28;20031;-69
2023/10/03 11:02:03;;;;;;;11.27;3.97;;;;;;;22.35;nan;101243.63;4952422;28;20015;-69
2023/10/03 11:04:33;;;;;;;11.73;3.83;;;;;;;22.43;nan;101248.38;4948847;28;20081;-69
2023/10/03 11:06:58;;;;;;;11.10;3.92;;;;;;;22.46;nan;101242.44;4951640;28;20060;-72
2023/10/03 11:09:24;;;;;;;10.23;4.05;;;;;;;22.54;nan;101224.13;4949634;28;20050;-71
2023/10/03 11:11:52;;;;;;;12.70;3.45;;;;;;;22.61;nan;101213.84;4949504;28;20047;-71
2023/10/03 11:14:29;;;;;;;9.88;4.40;;;;;;;22.70;nan;101244.34;4947905;28;20019;-71
2023/10/03 11:16:55;;;;;;;11.77;4.20;;;;;;;22.68;nan;101195.50;4948575;28;20039;-70
2023/10/03 11:19:21;;;;;;;9.85;4.45;;;;;;;;;;4948997;28;20122;-69
2023/10/03 11:21:47;;;;;;;9.40;3.55;;;;;;;22.80;nan;101211.22;4950244;28;20023;-69
2023/10/03 11:24:13;;;;;;;9.80;3.88;;;;;;;22.83;nan;101199.88;4947048;28;20027;-68
2023/10/03 11:26:53;;;;;;;9.05;4.13;;;;;;;22.89;nan;101204.09;4946443;28;20039;-70
2023/10/03 11:29:34;;;;;;;12.00;3.92;;;;;;;22.99;nan;101200.53;4949987;28;20179;-71
2023/10/03 11:32:01;;;;;;;11.75;4.15;;;;;;;23.00;nan;101181.41;4951762;28;20055;-69
2023/10/03 11:34:38;;;;;;;14.90;4.03;;;;;;;23.09;nan;101193.13;4949058;28;20035;-69
2023/10/03 11:37:04;;;;;;;10.20;3.83;;;;;;;23.06;nan;101206.34;4950185;28;20035;-72
2023/10/03 11:39:36;;;;;;;9.43;4.35;;;;;;;23.12;nan;101205.97;4948020;28;20557;-72
2023/10/03 11:42:24;;;;;;;10.07;4.65;;;;;;;23.17;nan;101188.19;4950569;28;20023;-68
2023/10/03 11:45:00;;;;;;;11.37;3.80;;;;;;;23.21;nan;101195.38;4947531;28;20600;-68
2023/10/03 11:47:26;;;;;;;10.20;4.10;;;;;;;23.24;nan;101177.88;4947735;28;20035;-68
2023/10/03 11:49:52;;;;;;;11.60;4.10;;;;;;;23.28;nan;101160.09;4946966;28;20027;-67
2023/10/03 11:52:18;;;;;;;8.68;3.63;;;;;;;;;;4950110;28;20053;-68
2023/10/03 11:54:45;;;;;;;11.73;4.20;;;;;;;23.48;nan;101172.41;4949032;28;20130;-68
2023/10/03 11:57:12;;;;;;;9.52;3.78;;;;;;;23.55;nan;101179.00;4947413;28;20034;-68
2023/10/03 11:59:40;;;;;;;9.02;4.25;;;;;;;23.60;nan;101156.63;4966211;28;20719;-68
2023/10/03 12:02:06;;;;;;;9.10;3.88;;;;;;;23.63;nan;101196.34;4950117;28;20560;-70
2023/10/03 12:04:37;;;;;;;12.32;4.40;;;;;;;23.67;nan;101153.56;4949918;28;20113;-68
2023/10/03 12:07:03;;;;;;;7.40;4.00;;;;;;;23.75;nan;101152.91;4950389;28;20509;-69
2023/10/03 12:09:29;;;;;;;16.92;4.85;;;;;;;23.78;nan;101138.88;4949874;28;20050;-67
2023/10/03 12:11:55;;;;;;;9.75;4.10;;;;;;;23.83;nan;101148.75;4954957;28;20519;-68
2023/10/03 12:14:21;;;;;;;12.73;4.60;;;;;;;23.83;nan;101146.84;4950590;28;20134;-68
2023/10/03 12:16:51;;;;;;;10.10;4.30;;;;;;;23.88;nan;101157.53;4951608;28;20119;-68
2023/10/03 12:19:21;;;;;;;12.40;4.32;;;;;;;23.88;nan;101119.88;4951827;28;20163;-69
2023/10/03 12:21:46;;;;;;;10.50;3.90;;;;;;;23.88;nan;101149.44;4951436;28;20371;-70
2023/10/03 12:24:12;;;;;;;10.18;4.00;;;;;;;23.97;nan;101134.22;4950440;28;20039;-68
2023/10/03 12:26:37;;;;;;;8.77;4.10;;;;;;;24.01;nan;101142.50;4952422;28;20386;-72
2023/10/03 12:29:04;;;;;;;16.17;4.32;;;;;;;23.97;nan;101168.41;4952044;28;20114;-69
2023/10/03 12:31:31;;;;;;;10.18;3.83;;;;;;;24.10;nan;101127.25;4952701;28;20098;-71
2023/10/03 12:33:58;;;;;;;10.02;3.72;;;;;;;24.17;nan;101138.41;4952944;28;20027;-69
2023/10/03 12:36:24;;;;;;;10.13;4.00;;;;;;;24.22;nan;101132.16;4949441;28;20035;-69
2023/10/03 12:38:49;;;;;;;9.80;4.50;;;;;;;24.28;nan;101125.56;4950733;28;20023;-70
2023/10/03 12:41:15;;;;;;;12.93;4.68;;;;;;;24.27;nan;101164.34;4953761;28;20483;-68
2023/10/03 12:43:46;;;;;;;10.38;4.47;;;;;;;24.37;nan;101172.25;4943723;28;20061;-70
2023/10/03 12:46:13;;;;;;;11.45;4.78;;;;;;;24.39;nan;101115.38;4953045;28;20541;-70
2023/10/03 12:48:39;;;;;;;13.65;4.63;;;;;;;24.44;nan;101077.59;4949522;28;20033;-69
2023/10/03 12:51:04;;;;;;;10.32;4.55;;;;;;;24.51;nan;101096.06;4953044;28;20667;-68
2023/10/03 12:53:35;;;;;;;12.98;4.95;;;;;;;24.51;nan;101102.25;4950210;28;20050;-69
2023/10/03 12:56:02;;;;;;;9.55;4.32;;;;;;;24.55;nan;101172.47;4945338;28;20035;-71
2023/10/03 12:58:28;;;;;;;10.18;3.92;;;;;;;24.54;nan;101047.81;4942786;28;20127;-66
2023/10/03 13:00:53;;;;;;;8.73;4.22;;;;;;;24.55;nan;101040.53;4949532;28;20463;-68
2023/10/03 13:03:19;;;;;;;13.68;4.40;;;;;;;24.60;nan;101102.34;4948507;28;20038;-67
2023/10/03 13:05:45;;;;;;;8.38;3.83;;;;;;;24.66;nan;101084.94;4949701;28;20109;-67
2023/10/03 13:08:12;;;;;;;10.68;3.70;;;;;;;24.66;nan;101079.56;4948314;28;20218;-68
2023/10/03 13:10:40;;;;;;;8.77;4.03;;;;;;;24.69;nan;101108.59;4948416;28;20024;-70
2023/10/03 13:13:08;;;;;;;10.10;4.28;;;;;;;24.68;nan;101096.22;4951009;28;20030;-68
2023/10/03 13:15:36;;;;;;;10.20;4.10;;;;;;;24.69;nan;101092.44;4950586;28;20023;-68
2023/10/03 13:18:02;;;;;;;10.43;4.63;;;;;;;24.70;nan;101077.88;4951648;28;20272;-70
2023/10/03 13:20:28;;;;;;;10.77;4.20;;;;;;;24.75;nan;101085.03;4950925;28;20035;-68
2023/10/03 13:22:56;;;;;;;9.43;3.90;;;;;;;;;;4946514;28;20538;-69
2023/10/03 13:25:21;;;;;;;11.55;4.53;;;;;;;24.72;nan;101091.84;4954670;28;20051;-69
2023/10/03 13:27:48;;;;;;;11.32;4.60;;;;;;;24.79;nan;101081.44;4958558;28;20031;-68
2023/10/03 13:30:27;;;;;;;9.20;4.20;;;;;;;24.80;nan;101087.63;4957919;28;20027;-66
2023/10/03 13:32:55;;;;;;;;;;;;;;;24.84;nan;101086.72;4959559;28;20028;-67
2023/10/03 13:35:22;;;;;;;14.43;4.90;;;;;;;24.74;nan;101005.34;4958767;28;19914;-68
2023/10/03 13:37:48;;;;;;;13.35;4.00;;;;;;;24.86;nan;101064.06;4959966;28;20058;-67
2023/10/03 13:40:14;;;;;;;9.02;4.20;;;;;;;24.88;nan;101061.84;4950038;28;20046;-70